createdAt,value
2023-05-24T00:02:20.628Z,7.03
2023-05-24T00:04:49.841Z,6.25
2023-05-24T00:07:16.639Z,6.93
2023-05-24T00:09:43.378Z,6.18
2023-05-24T00:12:10.449Z,6.25
2023-05-24T00:14:37.308Z,6.03
2023-05-24T00:17:04.149Z,7.70
2023-05-24T00:19:30.829Z,6.63
2023-05-24T00:21:57.480Z,6.53
2023-05-24T00:24:24.147Z,5.82
2023-05-24T00:26:50.879Z,6.85
2023-05-24T00:29:17.675Z,6.70
2023-05-24T00:31:44.380Z,6.15
2023-05-24T00:34:11.269Z,7.10
2023-05-24T00:36:38.264Z,5.57
2023-05-24T00:39:05.340Z,5.93
2023-05-24T00:41:32.078Z,6.70
2023-05-24T00:43:58.788Z,5.85
2023-05-24T00:46:30.870Z,6.07
2023-05-24T00:48:58.634Z,6.10
2023-05-24T00:51:27.277Z,5.65
2023-05-24T00:53:54.977Z,6.40
2023-05-24T00:56:22.670Z,6.50
2023-05-24T00:58:50.792Z,6.25
2023-05-24T01:01:17.666Z,5.93
2023-05-24T01:03:46.206Z,6.00
2023-05-24T01:06:15.957Z,5.82
2023-05-24T01:08:53.166Z,5.70
2023-05-24T01:11:35.173Z,6.22
2023-05-24T01:14:16.193Z,5.53
2023-05-24T01:16:53.127Z,5.43
2023-05-24T01:19:44.714Z,5.75
2023-05-24T01:22:24.652Z,5.88
2023-05-24T01:25:16.430Z,6.53
2023-05-24T01:27:44.752Z,5.43
2023-05-24T01:30:13.122Z,5.35
2023-05-24T01:32:40.757Z,6.10
2023-05-24T01:35:07.972Z,5.40
2023-05-24T01:37:34.603Z,6.28
2023-05-24T01:40:02.187Z,6.13
2023-05-24T01:42:42.215Z,5.18
2023-05-24T01:45:14.757Z,5.82
2023-05-24T01:48:04.595Z,5.85
2023-05-24T01:50:45.539Z,5.43
2023-05-24T01:53:16.628Z,6.03
2023-05-24T01:55:44.932Z,5.43
2023-05-24T01:58:13.507Z,5.10
2023-05-24T02:00:41.655Z,5.47
2023-05-24T02:03:08.645Z,5.80
2023-05-24T02:05:35.424Z,6.10
2023-05-24T02:08:02.266Z,5.45
2023-05-24T02:10:28.924Z,5.75
2023-05-24T02:12:55.784Z,5.47
2023-05-24T02:15:22.580Z,5.28
2023-05-24T02:17:49.320Z,5.35
2023-05-24T02:20:17.662Z,5.75
2023-05-24T02:22:44.452Z,5.80
2023-05-24T02:25:11.150Z,5.80
2023-05-24T02:27:37.955Z,5.88
2023-05-24T02:30:06.661Z,5.53
2023-05-24T02:32:34.618Z,4.90
2023-05-24T02:35:04.048Z,5.55
2023-05-24T02:37:31.056Z,4.90
2023-05-24T02:39:59.019Z,5.47
2023-05-24T02:42:25.783Z,6.07
2023-05-24T02:44:53.280Z,6.47
2023-05-24T02:47:20.422Z,5.28
2023-05-24T02:49:47.333Z,5.35
2023-05-24T02:52:15.076Z,6.30
2023-05-24T02:54:41.949Z,5.03
2023-05-24T02:57:08.707Z,4.93
2023-05-24T02:59:36.564Z,5.50
2023-05-24T03:02:03.518Z,5.22
2023-05-24T03:04:30.415Z,4.85
2023-05-24T03:06:57.040Z,5.40
2023-05-24T03:09:24.162Z,5.28
2023-05-24T03:11:54.255Z,5.32
2023-05-24T03:14:23.893Z,5.65
2023-05-24T03:16:51.123Z,5.15
2023-05-24T03:19:18.221Z,5.80
2023-05-24T03:21:44.891Z,5.68
2023-05-24T03:24:13.856Z,6.18
2023-05-24T03:26:41.112Z,5.30
2023-05-24T03:29:07.935Z,5.53
2023-05-24T03:31:34.689Z,6.00
2023-05-24T03:34:01.355Z,5.68
2023-05-24T03:36:29.136Z,5.82
2023-05-24T03:38:58.318Z,5.88
2023-05-24T03:41:27.662Z,6.07
2023-05-24T03:43:55.112Z,5.63
2023-05-24T03:46:22.364Z,5.07
2023-05-24T03:48:51.299Z,6.25
2023-05-24T03:51:18.131Z,5.72
2023-05-24T03:53:45.008Z,5.82
2023-05-24T03:56:13.035Z,5.57
2023-05-24T03:58:39.965Z,5.78
2023-05-24T04:01:08.081Z,5.55
2023-05-24T04:03:35.329Z,5.88
2023-05-24T04:06:02.139Z,4.75
2023-05-24T04:08:29.808Z,4.97
2023-05-24T04:10:56.523Z,5.85
2023-05-24T04:13:23.125Z,4.88
2023-05-24T04:15:50.403Z,4.45
2023-05-24T04:18:17.410Z,5.13
2023-05-24T04:20:45.481Z,4.28
2023-05-24T04:23:12.368Z,4.68
2023-05-24T04:25:39.744Z,4.93
2023-05-24T04:28:07.003Z,5.50
2023-05-24T04:30:37.919Z,4.50
2023-05-24T04:33:04.723Z,4.45
2023-05-24T04:35:31.378Z,5.30
2023-05-24T04:37:59.714Z,4.50
2023-05-24T04:40:26.435Z,5.13
2023-05-24T04:42:53.939Z,4.25
2023-05-24T04:45:20.745Z,5.40
2023-05-24T04:47:47.361Z,4.80
2023-05-24T04:50:14.404Z,4.22
2023-05-24T04:52:41.086Z,4.72
2023-05-24T04:55:08.120Z,4.85
2023-05-24T04:57:34.873Z,5.68
2023-05-24T05:00:02.067Z,4.80
2023-05-24T05:02:29.001Z,5.30
2023-05-24T05:04:55.605Z,4.72
2023-05-24T05:07:22.440Z,4.55
2023-05-24T05:09:49.135Z,5.57
2023-05-24T05:12:16.167Z,4.93
2023-05-24T05:14:43.254Z,5.13
2023-05-24T05:17:09.890Z,5.03
2023-05-24T05:19:36.658Z,5.18
2023-05-24T05:22:03.333Z,5.00
2023-05-24T05:24:30.151Z,6.72
2023-05-24T05:26:56.837Z,7.03
2023-05-24T05:29:24.493Z,4.72
2023-05-24T05:31:51.462Z,6.18
2023-05-24T05:34:19.958Z,4.97
2023-05-24T05:36:46.790Z,6.18
2023-05-24T05:39:14.772Z,5.47
2023-05-24T05:41:45.995Z,6.18
2023-05-24T05:44:13.707Z,5.72
2023-05-24T05:46:42.484Z,6.20
2023-05-24T05:49:10.099Z,6.10
2023-05-24T05:51:38.681Z,5.05
2023-05-24T05:54:06.762Z,5.43
2023-05-24T05:56:33.826Z,5.35
2023-05-24T05:59:00.638Z,5.93
2023-05-24T06:01:28.450Z,4.85
2023-05-24T06:03:57.970Z,6.30
2023-05-24T06:06:25.204Z,5.40
2023-05-24T06:08:51.768Z,6.20
2023-05-24T06:11:19.182Z,6.18
2023-05-24T06:13:46.593Z,6.47
2023-05-24T06:16:14.600Z,6.82
2023-05-24T06:18:50.152Z,5.50
2023-05-24T06:21:24.236Z,6.05
2023-05-24T06:23:50.857Z,6.80
2023-05-24T06:26:17.638Z,6.43
2023-05-24T06:28:44.392Z,6.55
2023-05-24T06:31:11.446Z,6.50
2023-05-24T06:33:39.843Z,5.93
2023-05-24T06:36:09.336Z,6.57
2023-05-24T06:38:36.428Z,6.50
2023-05-24T06:41:04.111Z,6.15
2023-05-24T06:43:31.629Z,5.95
2023-05-24T06:45:58.213Z,5.15
2023-05-24T06:48:25.007Z,6.18
2023-05-24T06:50:52.408Z,6.32
2023-05-24T06:53:18.988Z,5.85
2023-05-24T06:55:46.256Z,5.38
2023-05-24T06:58:15.193Z,5.95
2023-05-24T07:00:43.721Z,7.22
2023-05-24T07:03:11.035Z,5.70
2023-05-24T07:05:37.936Z,6.22
2023-05-24T07:08:04.853Z,6.50
2023-05-24T07:10:31.775Z,5.47
2023-05-24T07:13:00.690Z,6.15
2023-05-24T07:15:27.309Z,5.25
2023-05-24T07:17:54.675Z,4.70
2023-05-24T07:20:21.439Z,5.80
2023-05-24T07:22:48.738Z,6.20
2023-05-24T07:25:15.396Z,4.60
2023-05-24T07:27:42.046Z,5.55
2023-05-24T07:30:23.510Z,5.07
2023-05-24T07:32:52.098Z,5.25
2023-05-24T07:35:19.282Z,4.68
2023-05-24T07:37:46.924Z,5.38
2023-05-24T07:40:14.229Z,5.70
2023-05-24T07:42:42.085Z,6.38
2023-05-24T07:45:10.627Z,5.53
2023-05-24T07:47:37.665Z,4.93
2023-05-24T07:50:04.730Z,4.57
2023-05-24T07:52:31.342Z,4.45
2023-05-24T07:54:57.974Z,4.97
2023-05-24T07:57:24.723Z,5.78
2023-05-24T07:59:53.241Z,4.88
2023-05-24T08:02:21.179Z,5.28
2023-05-24T08:04:50.141Z,6.40
2023-05-24T08:07:18.113Z,4.90
2023-05-24T08:09:47.847Z,5.80
2023-05-24T08:12:17.135Z,5.70
2023-05-24T08:14:44.717Z,5.00
2023-05-24T08:17:12.103Z,5.40
2023-05-24T08:22:09.584Z,5.85
2023-05-24T08:24:36.174Z,6.22
2023-05-24T08:27:04.188Z,5.50
2023-05-24T08:29:30.894Z,4.80
2023-05-24T08:31:58.131Z,5.75
2023-05-24T08:34:24.781Z,6.90
2023-05-24T08:36:51.398Z,5.68
2023-05-24T08:39:18.123Z,5.30
2023-05-24T08:41:49.551Z,5.03
2023-05-24T08:44:25.290Z,5.15
2023-05-24T08:46:54.777Z,5.43
2023-05-24T08:49:21.659Z,5.53
2023-05-24T08:51:49.318Z,4.90
2023-05-24T08:54:16.628Z,5.18
2023-05-24T08:56:43.905Z,4.82
2023-05-24T08:59:13.410Z,5.43
2023-05-24T09:01:41.880Z,5.30
2023-05-24T09:04:09.140Z,5.47
2023-05-24T09:06:36.946Z,4.75
2023-05-24T09:09:04.606Z,5.10
2023-05-24T09:11:32.289Z,4.60
2023-05-24T09:14:00.280Z,4.10
2023-05-24T09:16:27.465Z,4.68
2023-05-24T09:18:54.201Z,4.85
2023-05-24T09:21:21.353Z,5.93
2023-05-24T09:23:49.166Z,4.72
2023-05-24T09:26:15.942Z,4.35
2023-05-24T09:28:44.233Z,4.68
2023-05-24T09:31:12.248Z,3.47
2023-05-24T09:33:39.242Z,4.68
2023-05-24T09:36:07.302Z,5.18
2023-05-24T09:38:35.990Z,4.80
2023-05-24T09:41:07.250Z,4.10
2023-05-24T09:43:35.254Z,4.75
2023-05-24T09:46:05.646Z,4.10
2023-05-24T09:48:32.296Z,4.28
2023-05-24T09:51:11.513Z,3.60
2023-05-24T09:53:38.613Z,4.00
2023-05-24T09:56:09.801Z,3.78
2023-05-24T09:58:36.677Z,3.97
2023-05-24T10:01:08.356Z,4.00
2023-05-24T10:03:37.488Z,3.72
2023-05-24T10:06:09.575Z,4.15
2023-05-24T10:08:36.757Z,4.57
2023-05-24T10:11:06.342Z,3.53
2023-05-24T10:13:36.489Z,4.57
2023-05-24T10:16:03.795Z,3.85
2023-05-24T10:18:30.629Z,3.65
2023-05-24T10:21:00.899Z,4.20
2023-05-24T10:23:31.410Z,4.18
2023-05-24T10:26:09.713Z,5.03
2023-05-24T10:28:42.207Z,4.28
2023-05-24T10:31:25.736Z,4.65
2023-05-24T10:33:57.170Z,3.88
2023-05-24T10:36:28.860Z,3.95
2023-05-24T10:38:56.498Z,4.43
2023-05-24T10:41:27.203Z,4.07
2023-05-24T10:44:08.599Z,3.63
2023-05-24T10:46:36.609Z,4.60
2023-05-24T10:49:05.945Z,4.07
2023-05-24T10:51:38.648Z,4.15
2023-05-24T10:54:17.540Z,4.32
2023-05-24T10:56:49.485Z,4.50
2023-05-24T10:59:35.183Z,4.53
2023-05-24T11:02:03.440Z,4.90
2023-05-24T11:04:36.486Z,5.63
2023-05-24T11:07:05.398Z,4.72
2023-05-24T11:09:33.343Z,5.05
2023-05-24T11:12:09.432Z,5.72
2023-05-24T11:14:40.383Z,4.57
2023-05-24T11:17:08.212Z,6.03
2023-05-24T11:19:37.245Z,5.63
2023-05-24T11:22:07.563Z,4.53
2023-05-24T11:24:34.905Z,4.72
2023-05-24T11:27:06.058Z,4.65
2023-05-24T11:29:34.353Z,5.00
2023-05-24T11:32:04.990Z,4.00
2023-05-24T11:34:33.498Z,4.82
2023-05-24T11:37:06.042Z,4.97
2023-05-24T11:39:38.638Z,4.90
2023-05-24T11:42:06.578Z,4.30
2023-05-24T11:44:36.483Z,3.95
2023-05-24T11:47:05.270Z,3.83
2023-05-24T11:49:31.956Z,4.32
2023-05-24T11:51:59.888Z,3.70
2023-05-24T11:54:32.679Z,4.03
2023-05-24T11:59:42.042Z,4.43
2023-05-24T12:02:09.112Z,4.55
2023-05-24T12:04:35.889Z,3.92
2023-05-24T12:07:03.167Z,3.80
2023-05-24T12:09:30.110Z,3.78
2023-05-24T12:11:58.463Z,3.75
2023-05-24T12:14:28.470Z,3.83
2023-05-24T12:16:57.109Z,4.22
2023-05-24T12:19:33.560Z,3.40
2023-05-24T12:22:05.125Z,4.32
2023-05-24T12:24:32.383Z,4.55
2023-05-24T12:27:09.180Z,4.03
2023-05-24T12:29:41.977Z,3.50
2023-05-24T12:32:14.667Z,4.15
2023-05-24T12:34:43.530Z,3.63
2023-05-24T12:37:12.310Z,4.15
2023-05-24T12:39:39.808Z,4.60
2023-05-24T12:42:06.989Z,3.67
2023-05-24T12:44:37.607Z,4.30
2023-05-24T12:47:06.876Z,3.30
2023-05-24T12:49:33.679Z,2.75
2023-05-24T12:52:01.944Z,2.85
2023-05-24T12:54:29.874Z,2.63
2023-05-24T12:56:57.769Z,2.60
2023-05-24T12:59:25.528Z,2.88
2023-05-24T13:01:52.786Z,2.83
2023-05-24T13:04:21.825Z,2.60
2023-05-24T13:06:49.015Z,2.92
2023-05-24T13:09:18.769Z,3.53
2023-05-24T13:11:46.808Z,3.42
2023-05-24T13:14:15.345Z,4.18
2023-05-24T13:16:50.499Z,4.07
2023-05-24T13:19:24.719Z,4.32
2023-05-24T13:21:56.420Z,3.60
2023-05-24T13:27:28.072Z,4.43
2023-05-24T13:35:37.456Z,5.68
2023-05-24T13:38:28.429Z,6.65
2023-05-24T13:41:29.150Z,5.50
2023-05-24T13:44:22.009Z,5.25
2023-05-24T13:47:38.498Z,4.45
2023-05-24T13:52:53.423Z,4.35
2023-05-24T13:55:22.733Z,3.92
2023-05-24T13:58:05.831Z,4.13
2023-05-24T14:01:09.142Z,4.00
2023-05-24T14:03:54.295Z,4.07
2023-05-24T14:06:43.465Z,3.60
2023-05-24T14:09:21.959Z,3.75
2023-05-24T14:12:14.875Z,4.18
2023-05-24T14:14:59.631Z,4.45
2023-05-24T14:18:21.642Z,4.00
2023-05-24T14:21:05.331Z,4.40
2023-05-24T14:24:02.696Z,4.40
2023-05-24T14:26:39.848Z,3.90
2023-05-24T14:29:13.809Z,4.13
2023-05-24T14:31:59.887Z,4.10
2023-05-24T14:34:43.260Z,3.28
2023-05-24T14:37:17.598Z,4.07
2023-05-24T14:40:02.765Z,4.10
2023-05-24T14:42:39.686Z,4.13
2023-05-24T14:45:39.755Z,3.85
2023-05-24T14:48:10.860Z,3.67
2023-05-24T14:50:46.214Z,3.92
2023-05-24T14:53:27.761Z,3.90
2023-05-24T14:56:13.238Z,4.28
2023-05-24T15:01:33.103Z,4.47
2023-05-24T15:04:12.932Z,3.90
2023-05-24T15:06:48.039Z,4.38
2023-05-24T15:09:14.710Z,4.00
2023-05-24T15:11:47.317Z,3.95
2023-05-24T15:14:35.367Z,4.03
2023-05-24T15:17:04.659Z,3.35
2023-05-24T15:19:36.713Z,3.90
2023-05-24T15:22:05.842Z,3.47
2023-05-24T15:24:38.123Z,3.42
2023-05-24T15:27:07.546Z,3.45
2023-05-24T15:29:43.661Z,3.25
2023-05-24T15:32:23.224Z,3.38
2023-05-24T15:35:04.541Z,3.22
2023-05-24T15:38:03.099Z,3.28
2023-05-24T15:40:47.577Z,3.50
2023-05-24T15:43:23.265Z,3.75
2023-05-24T15:45:53.698Z,2.92
2023-05-24T15:48:23.871Z,3.25
2023-05-24T15:51:35.967Z,3.30
2023-05-24T15:54:07.438Z,3.65
2023-05-24T15:57:05.042Z,4.15
2023-05-24T15:59:41.900Z,4.13
2023-05-24T16:05:56.051Z,3.85
2023-05-24T16:14:43.637Z,4.10
2023-05-24T16:17:13.314Z,4.07
2023-05-24T16:20:03.864Z,3.38
2023-05-24T16:25:59.156Z,3.78
2023-05-24T16:28:31.491Z,3.42
2023-05-24T16:33:44.749Z,3.00
2023-05-24T16:39:25.005Z,3.75
2023-05-24T16:41:53.437Z,3.67
2023-05-24T16:44:24.385Z,4.63
2023-05-24T16:46:56.321Z,4.60
2023-05-24T16:49:28.528Z,4.78
2023-05-24T16:52:07.544Z,4.80
2023-05-24T16:54:48.568Z,5.32
2023-05-24T16:57:17.499Z,5.68
2023-05-24T16:59:57.922Z,5.35
2023-05-24T17:02:24.881Z,5.60
2023-05-24T17:04:54.387Z,4.78
2023-05-24T17:07:21.014Z,5.50
2023-05-24T17:10:24.512Z,4.75
2023-05-24T17:13:14.024Z,4.80
2023-05-24T17:15:50.300Z,4.93
2023-05-24T17:18:17.414Z,5.07
2023-05-24T17:20:53.102Z,5.57
2023-05-24T17:23:21.033Z,4.82
2023-05-24T17:25:58.216Z,5.35
2023-05-24T17:28:33.684Z,4.43
2023-05-24T17:31:04.492Z,4.97
2023-05-24T17:33:35.169Z,4.35
2023-05-24T17:36:09.869Z,4.72
2023-05-24T17:38:43.807Z,4.90
2023-05-24T17:41:25.481Z,4.28
2023-05-24T17:44:12.751Z,4.75
2023-05-24T17:46:44.321Z,4.25
2023-05-24T17:49:16.951Z,4.00
2023-05-24T17:51:44.606Z,4.10
2023-05-24T17:54:12.201Z,3.95
2023-05-24T17:59:35.750Z,4.80
2023-05-24T18:02:09.751Z,4.70
2023-05-24T18:04:43.907Z,4.35
2023-05-24T18:10:28.175Z,4.00
2023-05-24T18:12:58.188Z,4.75
2023-05-24T18:15:39.760Z,5.68
2023-05-24T18:18:12.946Z,4.72
2023-05-24T18:20:56.566Z,4.85
2023-05-24T18:23:23.210Z,4.68
2023-05-24T18:25:50.097Z,4.43
2023-05-24T18:28:27.359Z,4.07
2023-05-24T18:30:53.937Z,4.45
2023-05-24T18:33:20.770Z,4.90
2023-05-24T18:35:47.466Z,4.63
2023-05-24T18:38:14.201Z,4.75
2023-05-24T18:40:40.798Z,4.00
2023-05-24T18:43:07.403Z,4.55
2023-05-24T18:45:33.973Z,4.30
2023-05-24T18:48:01.202Z,4.35
2023-05-24T18:50:28.280Z,4.93
2023-05-24T18:52:54.920Z,3.78
2023-05-24T18:55:21.520Z,4.43
2023-05-24T18:57:49.207Z,4.70
2023-05-24T19:00:24.156Z,4.88
2023-05-24T19:02:51.101Z,4.63
2023-05-24T19:05:17.857Z,5.13
2023-05-24T19:07:44.502Z,5.40
2023-05-24T19:10:11.442Z,5.32
2023-05-24T19:12:38.083Z,5.05
2023-05-24T19:15:05.195Z,5.45
2023-05-24T19:17:32.009Z,5.35
2023-05-24T19:19:58.793Z,5.63
2023-05-24T19:22:27.507Z,4.97
2023-05-24T19:24:54.163Z,5.97
2023-05-24T19:27:20.724Z,5.35
2023-05-24T19:29:47.355Z,5.65
2023-05-24T19:32:14.105Z,5.47
2023-05-24T19:34:42.139Z,6.05
2023-05-24T19:37:09.659Z,5.25
2023-05-24T19:39:37.113Z,5.80
2023-05-24T19:42:04.254Z,6.30
2023-05-24T19:44:31.257Z,5.65
2023-05-24T19:46:57.907Z,5.65
2023-05-24T19:49:24.527Z,5.80
2023-05-24T19:51:51.599Z,6.07
2023-05-24T19:54:18.309Z,6.40
2023-05-24T19:56:45.646Z,5.70
2023-05-24T19:59:12.372Z,5.82
2023-05-24T20:01:39.039Z,6.07
2023-05-24T20:04:05.857Z,5.70
2023-05-24T20:06:33.068Z,5.88
2023-05-24T20:09:00.289Z,5.40
2023-05-24T20:11:27.978Z,6.30
2023-05-24T20:13:55.809Z,5.88
2023-05-24T20:16:23.043Z,5.88
2023-05-24T20:18:49.648Z,5.80
2023-05-24T20:21:17.770Z,6.38
2023-05-24T20:23:44.484Z,5.70
2023-05-24T20:26:11.252Z,6.18
2023-05-24T20:28:37.875Z,5.55
2023-05-24T20:31:04.847Z,5.72
2023-05-24T20:33:33.379Z,5.35
2023-05-24T20:36:00.038Z,5.43
2023-05-24T20:38:26.691Z,5.32
2023-05-24T20:40:53.267Z,5.45
2023-05-24T20:43:19.832Z,4.55
2023-05-24T20:45:47.250Z,5.68
2023-05-24T20:48:14.116Z,5.30
2023-05-24T20:50:40.922Z,5.15
2023-05-24T20:53:07.531Z,5.88
2023-05-24T20:55:34.436Z,5.53
2023-05-24T20:58:00.991Z,6.10
2023-05-24T21:00:27.574Z,5.65
2023-05-24T21:02:54.309Z,6.40
2023-05-24T21:05:21.117Z,6.47
2023-05-24T21:07:47.863Z,5.80
2023-05-24T21:10:18.469Z,6.32
2023-05-24T21:12:45.788Z,6.03
2023-05-24T21:15:12.383Z,5.90
2023-05-24T21:17:39.148Z,6.07
2023-05-24T21:20:06.495Z,7.35
2023-05-24T21:22:33.207Z,8.15
2023-05-24T21:24:59.817Z,8.32
2023-05-24T21:27:27.338Z,8.32
2023-05-24T21:29:53.991Z,8.05
2023-05-24T21:32:20.804Z,7.53
2023-05-24T21:34:47.418Z,7.60
2023-05-24T21:37:14.019Z,7.13
2023-05-24T21:39:41.009Z,7.20
2023-05-24T21:42:07.660Z,7.68
2023-05-24T21:44:34.253Z,8.20
2023-05-24T21:47:01.117Z,8.77
2023-05-24T21:49:27.705Z,8.40
2023-05-24T21:51:54.267Z,8.20
2023-05-24T21:54:21.071Z,8.32
2023-05-24T21:56:47.753Z,9.07
2023-05-24T21:59:14.866Z,8.70
2023-05-24T22:01:41.843Z,8.00
2023-05-24T22:04:09.950Z,6.50
2023-05-24T22:06:37.075Z,7.43
2023-05-24T22:09:03.852Z,7.30
2023-05-24T22:11:30.527Z,7.50
2023-05-24T22:13:57.099Z,7.25
2023-05-24T22:16:24.201Z,7.20
2023-05-24T22:18:55.530Z,7.72
2023-05-24T22:21:22.703Z,8.02
2023-05-24T22:23:50.551Z,7.18
2023-05-24T22:26:17.405Z,7.20
2023-05-24T22:28:54.854Z,7.78
2023-05-24T22:31:22.200Z,7.82
2023-05-24T22:33:49.480Z,7.18
2023-05-24T22:36:16.217Z,7.85
2023-05-24T22:38:43.897Z,7.32
2023-05-24T22:41:10.951Z,7.18
2023-05-24T22:43:37.707Z,7.78
2023-05-24T22:46:06.576Z,7.80
2023-05-24T22:48:34.490Z,8.20
2023-05-24T22:51:01.908Z,7.70
2023-05-24T22:53:28.710Z,8.27
2023-05-24T22:55:55.608Z,7.97
2023-05-24T22:58:24.341Z,8.98
2023-05-24T23:00:51.726Z,8.20
2023-05-24T23:03:18.612Z,9.15
2023-05-24T23:05:45.781Z,9.40
2023-05-24T23:08:17.495Z,9.90
2023-05-24T23:10:46.195Z,8.95
2023-05-24T23:13:14.484Z,9.65
2023-05-24T23:15:41.234Z,8.75
2023-05-24T23:18:09.783Z,8.77
2023-05-24T23:20:40.142Z,9.18
2023-05-24T23:23:10.101Z,8.82
2023-05-24T23:25:37.724Z,8.98
2023-05-24T23:28:04.881Z,8.27
2023-05-24T23:30:31.645Z,9.25
2023-05-24T23:32:59.480Z,8.18
2023-05-24T23:35:26.224Z,8.10
2023-05-24T23:37:53.801Z,8.48
2023-05-24T23:40:21.206Z,7.90
2023-05-24T23:42:49.340Z,7.57
2023-05-24T23:45:16.569Z,7.28
2023-05-24T23:47:43.677Z,6.93
2023-05-24T23:50:11.132Z,7.32
2023-05-24T23:52:37.906Z,6.93
2023-05-24T23:55:04.960Z,6.65
2023-05-24T23:57:31.539Z,7.55
2023-05-24T23:59:58.327Z,6.63
